Red River Army Depot, Texas
Current Conditions -  °F | °C
As of 8:53 AM on Thursday 18 Dec 2014 (Local Time) from KTXK Reporting Station
Overcast Overcast  
Wind Chill: 38°   Ceiling: 500
Heat Index: 41°   Visibility: 7mi
Dew Point: 40°   Wind: 5mph
Humidity: 96%   Direction: 70°ENE
Pressure: 30.19"   Gusts: NA
Location:  33.3633°N, 94.2141°W
Report Text: KTXK 181453Z 07004KT 7SM OVC005 05/04 A3019 RMK AO2 SLP223 T00500044 51008
Loading
Personal Weather Stations






























Interactive Weather Map New forecast layout! Learn more

10-Day Weather Forecast

Advertisements
Track Severe Weather on mobile